createdAt,value
2022-12-05T00:03:27.661Z,100274.78
2022-12-05T00:08:29.283Z,100266.22
2022-12-05T00:13:30.839Z,100265.00
2022-12-05T00:18:33.695Z,100267.53
2022-12-05T00:23:35.253Z,100271.72
2022-12-05T00:28:36.910Z,100275.94
2022-12-05T00:33:39.370Z,100274.25
2022-12-05T00:38:42.294Z,100282.09
2022-12-05T00:43:44.759Z,100278.41
2022-12-05T00:48:46.888Z,100281.78
2022-12-05T00:53:49.533Z,100284.69
2022-12-05T00:58:53.936Z,100283.00
2022-12-05T01:03:57.785Z,100280.94
2022-12-05T01:09:00.398Z,100278.63
2022-12-05T01:14:02.007Z,100281.34
2022-12-05T01:19:10.990Z,100282.00
2022-12-05T01:24:12.596Z,100287.59
2022-12-05T01:29:16.565Z,100303.66
2022-12-05T01:34:19.125Z,100303.66
2022-12-05T01:39:20.839Z,100309.72
2022-12-05T01:44:22.384Z,100306.63
2022-12-05T01:49:31.933Z,100314.03
2022-12-05T01:54:36.628Z,100316.72
2022-12-05T01:59:48.483Z,100324.69
2022-12-05T02:05:03.451Z,100328.78
2022-12-05T02:10:09.276Z,100323.19
2022-12-05T02:15:30.608Z,100328.22
2022-12-05T02:21:07.982Z,100338.88
2022-12-05T02:26:34.155Z,100362.75
2022-12-05T02:31:52.542Z,100363.97
2022-12-05T02:37:12.120Z,100364.81
2022-12-05T02:42:38.919Z,100370.22
2022-12-05T02:47:45.795Z,100363.97
2022-12-05T02:52:49.730Z,100373.44
2022-12-05T02:57:56.780Z,100381.72
2022-12-05T03:03:00.579Z,100389.19
2022-12-05T03:08:04.430Z,100385.16
2022-12-05T03:13:12.758Z,100374.63
2022-12-05T03:18:14.244Z,100366.09
2022-12-05T03:23:20.917Z,100373.09
2022-12-05T03:28:35.237Z,100378.34
2022-12-05T03:33:42.663Z,100375.06
2022-12-05T03:39:08.087Z,100378.44
2022-12-05T03:44:18.306Z,100380.13
2022-12-05T03:49:34.354Z,100375.81
2022-12-05T03:54:42.242Z,100382.03
2022-12-05T03:59:53.650Z,100371.56
2022-12-05T04:05:04.163Z,100380.13
2022-12-05T04:10:20.452Z,100378.84
2022-12-05T04:15:54.488Z,100374.16
2022-12-05T04:21:17.290Z,100368.56
2022-12-05T04:26:31.455Z,100358.41
2022-12-05T04:31:41.348Z,100353.13
2022-12-05T04:37:04.609Z,100380.53
2022-12-05T04:42:12.203Z,100384.88
2022-12-05T04:47:17.019Z,100394.59
2022-12-05T04:52:19.130Z,100398.94
2022-12-05T04:57:34.097Z,100398.09
2022-12-05T05:03:15.115Z,100388.94
2022-12-05T05:08:23.808Z,100401.00
2022-12-05T05:13:25.477Z,100390.16
2022-12-05T05:18:27.139Z,100397.72
2022-12-05T05:23:28.722Z,100409.72
2022-12-05T05:28:30.294Z,100424.56
2022-12-05T05:33:33.084Z,100436.06
2022-12-05T05:38:42.988Z,100446.16
2022-12-05T05:43:45.911Z,100459.44
2022-12-05T05:48:48.537Z,100456.25
2022-12-05T05:53:50.084Z,100460.09
2022-12-05T05:58:56.671Z,100451.78
2022-12-05T06:03:59.201Z,100447.78
2022-12-05T06:09:01.004Z,100439.59
2022-12-05T06:14:02.804Z,100459.69
2022-12-05T06:19:04.563Z,100472.03
2022-12-05T06:24:06.616Z,100483.25
2022-12-05T06:29:08.170Z,100489.16
2022-12-05T06:34:09.751Z,100498.78
2022-12-05T06:39:11.327Z,100498.97
2022-12-05T06:44:12.892Z,100504.28
2022-12-05T06:49:14.965Z,100501.91
2022-12-05T06:54:16.591Z,100508.00
2022-12-05T06:59:18.237Z,100505.94
2022-12-05T07:04:24.496Z,100502.34
2022-12-05T07:09:45.360Z,100510.66
2022-12-05T07:14:49.315Z,100516.72
2022-12-05T07:19:53.064Z,100530.03
2022-12-05T07:24:54.674Z,100533.06
2022-12-05T07:29:59.887Z,100537.25
2022-12-05T07:35:01.805Z,100547.56
2022-12-05T07:40:03.646Z,100555.31
2022-12-05T07:45:05.827Z,100559.75
2022-12-05T07:50:11.359Z,100564.59
2022-12-05T07:55:12.945Z,100565.00
2022-12-05T08:00:15.393Z,100570.09
2022-12-05T08:05:17.094Z,100576.53
2022-12-05T08:10:18.744Z,100564.84
2022-12-05T08:15:20.365Z,100566.16
2022-12-05T08:20:22.159Z,100560.66
2022-12-05T08:25:23.936Z,100575.13
2022-12-05T08:30:25.561Z,100592.19
2022-12-05T08:35:27.218Z,100600.78
2022-12-05T08:40:28.796Z,100602.09
2022-12-05T08:45:30.515Z,100607.72
2022-12-05T08:50:34.464Z,100614.28
2022-12-05T08:55:36.653Z,100627.88
2022-12-05T09:00:39.172Z,100639.13
2022-12-05T09:05:41.259Z,100658.31
2022-12-05T09:10:42.832Z,100666.84
2022-12-05T09:15:44.621Z,100681.34
2022-12-05T09:20:47.304Z,100686.78
2022-12-05T09:25:58.086Z,100710.75
2022-12-05T09:31:02.059Z,100713.66
2022-12-05T09:36:09.329Z,100734.63
2022-12-05T09:41:45.566Z,100740.50
2022-12-05T09:47:04.456Z,100741.03
2022-12-05T09:52:27.248Z,100727.22
2022-12-05T09:57:39.735Z,100719.97
2022-12-05T10:02:53.445Z,100725.66
2022-12-05T10:08:18.000Z,100734.19
2022-12-05T10:13:37.772Z,100731.66
2022-12-05T10:18:54.175Z,100722.47
2022-12-05T10:23:59.645Z,100712.66
2022-12-05T10:29:19.081Z,100706.13
2022-12-05T10:34:37.289Z,100708.91
2022-12-05T10:39:39.088Z,100707.84
2022-12-05T10:44:40.910Z,100729.22
2022-12-05T10:49:42.894Z,100755.06
2022-12-05T10:54:54.845Z,100771.22
2022-12-05T10:59:57.562Z,100781.78
2022-12-05T11:05:04.453Z,100793.50
2022-12-05T11:10:26.322Z,100789.50
2022-12-05T11:15:30.825Z,100798.50
2022-12-05T11:20:35.259Z,100790.53
2022-12-05T11:25:37.624Z,100787.25
2022-12-05T11:30:39.260Z,100782.53
2022-12-05T11:35:44.233Z,100782.88
2022-12-05T11:40:59.531Z,100804.47
2022-12-05T11:46:38.798Z,100840.94
2022-12-05T11:51:48.018Z,100881.50
2022-12-05T11:56:54.890Z,100916.53
2022-12-05T12:02:21.318Z,100932.97
2022-12-05T12:07:48.879Z,100928.28
2022-12-05T12:13:01.430Z,100917.53
2022-12-05T12:18:21.641Z,100906.94
2022-12-05T12:23:30.812Z,100879.25
2022-12-05T12:28:57.245Z,100826.59
2022-12-05T12:34:29.615Z,100805.41
2022-12-05T12:39:31.422Z,100817.66
2022-12-05T12:45:10.733Z,100841.47
2022-12-05T12:50:21.360Z,100851.19
2022-12-05T12:55:50.952Z,100899.53
2022-12-05T13:01:06.330Z,100923.81
2022-12-05T13:06:21.557Z,100910.91
2022-12-05T13:11:24.027Z,100880.66
2022-12-05T13:16:33.794Z,100858.63
2022-12-05T13:21:35.755Z,100858.75
2022-12-05T13:26:48.438Z,100856.13
2022-12-05T13:31:50.275Z,100849.78
2022-12-05T13:37:10.622Z,100836.63
2022-12-05T13:42:24.343Z,100846.78
2022-12-05T13:47:35.152Z,100858.47
2022-12-05T13:52:59.397Z,100862.44
2022-12-05T13:58:03.860Z,100864.97
2022-12-05T14:03:34.987Z,100889.03
2022-12-05T14:08:39.495Z,100892.53
2022-12-05T14:13:43.584Z,100876.31
2022-12-05T14:19:03.087Z,100872.09
2022-12-05T14:24:13.252Z,100841.25
2022-12-05T14:29:41.141Z,100828.09
2022-12-05T14:34:56.425Z,100805.31
2022-12-05T14:40:00.922Z,100797.59
2022-12-05T14:45:20.252Z,100806.53
2022-12-05T14:50:34.809Z,100799.31
2022-12-05T14:55:36.656Z,100798.56
2022-12-05T15:00:38.373Z,100809.72
2022-12-05T15:05:40.111Z,100817.28
2022-12-05T15:10:43.480Z,100824.56
2022-12-05T15:15:52.149Z,100811.78
2022-12-05T15:21:08.986Z,100822.06
2022-12-05T15:31:47.655Z,100839.78
2022-12-05T15:37:04.175Z,100843.34
2022-12-05T15:42:15.272Z,100843.66
2022-12-05T15:47:26.054Z,100845.13
2022-12-05T15:52:47.416Z,100857.50
2022-12-05T15:57:57.872Z,100856.31
2022-12-05T16:03:08.480Z,100863.81
2022-12-05T16:08:10.269Z,100861.19
2022-12-05T16:13:15.372Z,100865.97
2022-12-05T16:18:27.758Z,100859.88
2022-12-05T16:23:33.190Z,100852.72
2022-12-05T16:28:34.815Z,100848.16
2022-12-05T16:33:41.798Z,100843.34
2022-12-05T16:38:46.860Z,100829.28
2022-12-05T16:43:49.184Z,100814.19
2022-12-05T16:49:28.366Z,100782.00
2022-12-05T16:54:30.122Z,100762.81
2022-12-05T16:59:39.332Z,100749.97
2022-12-05T17:04:41.404Z,100743.78
2022-12-05T17:09:42.990Z,100725.50
2022-12-05T17:14:45.750Z,100721.19
2022-12-05T17:19:47.982Z,100721.19
2022-12-05T17:24:49.547Z,100711.19
2022-12-05T17:29:51.084Z,100722.25
2022-12-05T17:34:52.622Z,100702.19
2022-12-05T17:39:54.175Z,100697.94
2022-12-05T17:44:55.826Z,100681.28
2022-12-05T17:49:57.832Z,100684.56
2022-12-05T17:55:00.044Z,100680.34
2022-12-05T18:00:02.028Z,100682.38
2022-12-05T18:05:04.276Z,100678.00
2022-12-05T18:10:12.698Z,100677.53
2022-12-05T18:15:15.615Z,100675.16
2022-12-05T18:20:17.393Z,100677.22
2022-12-05T18:25:19.055Z,100667.97
2022-12-05T18:30:20.601Z,100664.66
2022-12-05T18:35:40.238Z,100659.59
2022-12-05T18:40:41.810Z,100646.38
2022-12-05T18:45:43.398Z,100651.25
2022-12-05T18:50:44.964Z,100642.63
2022-12-05T18:56:05.330Z,100637.19
2022-12-05T19:01:11.581Z,100630.44
2022-12-05T19:06:18.975Z,100626.59
2022-12-05T19:11:20.700Z,100637.41
2022-12-05T19:16:22.353Z,100626.81
2022-12-05T19:21:25.263Z,100617.28
2022-12-05T19:26:27.732Z,100609.09
2022-12-05T19:31:30.250Z,100607.19
2022-12-05T19:36:37.440Z,100611.25
2022-12-05T19:41:39.088Z,100585.94
2022-12-05T19:46:43.679Z,100569.41
2022-12-05T19:51:45.936Z,100570.78
2022-12-05T19:56:47.684Z,100564.84
2022-12-05T20:01:49.243Z,100569.94
2022-12-05T20:06:50.863Z,100571.94
2022-12-05T20:11:55.596Z,100586.97
2022-12-05T20:16:57.515Z,100584.88
2022-12-05T20:21:59.159Z,100590.81
2022-12-05T20:27:01.678Z,100596.09
2022-12-05T20:32:03.398Z,100613.44
2022-12-05T20:37:04.970Z,100613.13
2022-12-05T20:42:06.668Z,100605.69
2022-12-05T20:47:08.269Z,100604.19
2022-12-05T20:52:09.839Z,100611.63
2022-12-05T20:57:11.416Z,100610.78
2022-12-05T21:02:12.989Z,100623.13
2022-12-05T21:07:14.548Z,100622.66
2022-12-05T21:12:16.084Z,100625.03
2022-12-05T21:17:17.606Z,100623.31
2022-12-05T21:22:19.143Z,100613.88
2022-12-05T21:27:20.780Z,100613.53
2022-12-05T21:32:22.348Z,100618.94
2022-12-05T21:37:23.931Z,100630.59
2022-12-05T21:42:25.537Z,100622.50
2022-12-05T21:47:30.011Z,100624.84
2022-12-05T21:52:39.276Z,100627.41
2022-12-05T21:57:40.882Z,100621.81
2022-12-05T22:02:42.495Z,100621.28
2022-12-05T22:07:44.182Z,100621.94
2022-12-05T22:12:46.920Z,100621.03
2022-12-05T22:17:48.468Z,100615.47
2022-12-05T22:22:50.399Z,100608.69
2022-12-05T22:27:51.940Z,100603.88
2022-12-05T22:32:53.801Z,100610.44
2022-12-05T22:37:55.405Z,100608.38
2022-12-05T22:42:56.979Z,100609.19
2022-12-05T22:47:58.537Z,100609.81
2022-12-05T22:53:00.254Z,100596.81
2022-12-05T22:58:01.853Z,100587.88
2022-12-05T23:03:03.975Z,100589.53
2022-12-05T23:08:05.842Z,100588.50
2022-12-05T23:13:07.980Z,100586.69
2022-12-05T23:18:09.596Z,100575.44
2022-12-05T23:23:11.196Z,100571.44
2022-12-05T23:28:12.800Z,100569.94
2022-12-05T23:33:14.387Z,100566.63
2022-12-05T23:38:16.154Z,100578.66
2022-12-05T23:43:18.272Z,100577.38
2022-12-05T23:48:19.962Z,100580.25
2022-12-05T23:53:21.547Z,100590.88
2022-12-05T23:58:23.175Z,100593.44
